sensor_id;sensor_type;location;lat;lon;timestamp;temperature;humidity
16970;DHT22;8601;48.718;8.992;2022-12-20T00:02:00;4.00;99.90
16970;DHT22;8601;48.718;8.992;2022-12-20T00:04:27;4.10;99.90
16970;DHT22;8601;48.718;8.992;2022-12-20T00:06:54;4.10;99.90
16970;DHT22;8601;48.718;8.992;2022-12-20T00:09:21;4.10;99.90
16970;DHT22;8601;48.718;8.992;2022-12-20T00:11:51;4.00;99.90
16970;DHT22;8601;48.718;8.992;2022-12-20T00:14:18;3.90;99.90
16970;DHT22;8601;48.718;8.992;2022-12-20T00:16:45;3.90;99.90
16970;DHT22;8601;48.718;8.992;2022-12-20T00:19:12;3.90;99.90
16970;DHT22;8601;48.718;8.992;2022-12-20T00:21:40;4.00;99.90
16970;DHT22;8601;48.718;8.992;2022-12-20T00:24:07;4.00;99.90
16970;DHT22;8601;48.718;8.992;2022-12-20T00:26:36;4.00;99.90
16970;DHT22;8601;48.718;8.992;2022-12-20T00:29:05;4.10;99.90
16970;DHT22;8601;48.718;8.992;2022-12-20T00:31:32;4.20;99.90
16970;DHT22;8601;48.718;8.992;2022-12-20T00:34:00;4.20;99.90
16970;DHT22;8601;48.718;8.992;2022-12-20T00:36:29;4.20;99.90
16970;DHT22;8601;48.718;8.992;2022-12-20T00:38:56;4.30;99.90
16970;DHT22;8601;48.718;8.992;2022-12-20T00:41:25;4.30;99.90
16970;DHT22;8601;48.718;8.992;2022-12-20T00:43:52;4.10;99.90
16970;DHT22;8601;48.718;8.992;2022-12-20T00:46:21;4.10;99.90
16970;DHT22;8601;48.718;8.992;2022-12-20T00:48:49;4.10;99.90
16970;DHT22;8601;48.718;8.992;2022-12-20T00:51:18;4.10;99.90
16970;DHT22;8601;48.718;8.992;2022-12-20T00:53:47;4.00;99.90
16970;DHT22;8601;48.718;8.992;2022-12-20T00:56:14;3.90;99.90
16970;DHT22;8601;48.718;8.992;2022-12-20T00:58:47;3.90;99.90
16970;DHT22;8601;48.718;8.992;2022-12-20T01:01:18;3.90;99.90
16970;DHT22;8601;48.718;8.992;2022-12-20T01:04:17;4.00;99.90
16970;DHT22;8601;48.718;8.992;2022-12-20T01:07:03;4.10;99.90
16970;DHT22;8601;48.718;8.992;2022-12-20T01:09:34;4.20;99.90
16970;DHT22;8601;48.718;8.992;2022-12-20T01:12:00;4.30;99.90
16970;DHT22;8601;48.718;8.992;2022-12-20T01:14:47;4.40;99.90
16970;DHT22;8601;48.718;8.992;2022-12-20T01:17:15;4.40;99.90
16970;DHT22;8601;48.718;8.992;2022-12-20T01:19:43;4.30;99.90
16970;DHT22;8601;48.718;8.992;2022-12-20T01:22:10;4.30;99.90
16970;DHT22;8601;48.718;8.992;2022-12-20T01:24:37;4.20;99.90
16970;DHT22;8601;48.718;8.992;2022-12-20T01:27:04;4.20;99.90
16970;DHT22;8601;48.718;8.992;2022-12-20T01:29:32;4.20;99.90
16970;DHT22;8601;48.718;8.992;2022-12-20T01:32:02;4.30;99.90
16970;DHT22;8601;48.718;8.992;2022-12-20T01:34:39;4.20;99.90
16970;DHT22;8601;48.718;8.992;2022-12-20T01:37:09;4.20;99.90
16970;DHT22;8601;48.718;8.992;2022-12-20T01:39:36;4.20;99.90
16970;DHT22;8601;48.718;8.992;2022-12-20T01:42:18;4.20;99.90
16970;DHT22;8601;48.718;8.992;2022-12-20T01:44:55;4.20;99.90
16970;DHT22;8601;48.718;8.992;2022-12-20T01:47:24;4.20;99.90
16970;DHT22;8601;48.718;8.992;2022-12-20T01:49:53;4.20;99.90
16970;DHT22;8601;48.718;8.992;2022-12-20T01:52:27;4.40;99.90
16970;DHT22;8601;48.718;8.992;2022-12-20T01:54:57;4.40;99.90
16970;DHT22;8601;48.718;8.992;2022-12-20T01:57:31;4.30;99.90
16970;DHT22;8601;48.718;8.992;2022-12-20T02:00:09;4.30;99.90
16970;DHT22;8601;48.718;8.992;2022-12-20T02:02:46;4.20;99.90
16970;DHT22;8601;48.718;8.992;2022-12-20T02:05:20;4.20;99.90
16970;DHT22;8601;48.718;8.992;2022-12-20T02:07:53;4.20;99.90
16970;DHT22;8601;48.718;8.992;2022-12-20T02:10:26;4.20;99.90
16970;DHT22;8601;48.718;8.992;2022-12-20T02:13:18;4.20;99.90
16970;DHT22;8601;48.718;8.992;2022-12-20T02:15:57;4.20;99.90
16970;DHT22;8601;48.718;8.992;2022-12-20T02:18:26;4.20;99.90
16970;DHT22;8601;48.718;8.992;2022-12-20T02:21:29;4.10;99.90
16970;DHT22;8601;48.718;8.992;2022-12-20T02:24:24;4.00;99.90
16970;DHT22;8601;48.718;8.992;2022-12-20T02:30:09;3.90;99.90
16970;DHT22;8601;48.718;8.992;2022-12-20T02:32:39;3.90;99.90
16970;DHT22;8601;48.718;8.992;2022-12-20T02:35:10;3.80;99.90
16970;DHT22;8601;48.718;8.992;2022-12-20T02:37:47;3.80;99.90
16970;DHT22;8601;48.718;8.992;2022-12-20T02:40:14;3.80;99.90
16970;DHT22;8601;48.718;8.992;2022-12-20T02:42:44;3.80;99.90
16970;DHT22;8601;48.718;8.992;2022-12-20T02:45:13;3.80;99.90
16970;DHT22;8601;48.718;8.992;2022-12-20T02:47:48;3.70;99.90
16970;DHT22;8601;48.718;8.992;2022-12-20T02:50:19;3.80;99.90
16970;DHT22;8601;48.718;8.992;2022-12-20T02:52:47;3.90;99.90
16970;DHT22;8601;48.718;8.992;2022-12-20T02:55:15;3.90;99.90
16970;DHT22;8601;48.718;8.992;2022-12-20T02:57:46;3.90;99.90
16970;DHT22;8601;48.718;8.992;2022-12-20T03:00:18;3.90;99.90
16970;DHT22;8601;48.718;8.992;2022-12-20T03:02:46;3.90;99.90
16970;DHT22;8601;48.718;8.992;2022-12-20T03:05:33;4.00;99.90
16970;DHT22;8601;48.718;8.992;2022-12-20T03:08:17;3.90;99.90
16970;DHT22;8601;48.718;8.992;2022-12-20T03:10:44;4.00;99.90
16970;DHT22;8601;48.718;8.992;2022-12-20T03:13:11;4.00;99.90
16970;DHT22;8601;48.718;8.992;2022-12-20T03:15:40;4.00;99.90
16970;DHT22;8601;48.718;8.992;2022-12-20T03:18:07;4.10;99.90
16970;DHT22;8601;48.718;8.992;2022-12-20T03:20:54;4.10;99.90
16970;DHT22;8601;48.718;8.992;2022-12-20T03:23:21;4.10;99.90
16970;DHT22;8601;48.718;8.992;2022-12-20T03:25:48;4.10;99.90
16970;DHT22;8601;48.718;8.992;2022-12-20T03:28:15;4.10;99.90
16970;DHT22;8601;48.718;8.992;2022-12-20T03:30:45;4.10;99.90
16970;DHT22;8601;48.718;8.992;2022-12-20T03:33:13;4.00;99.90
16970;DHT22;8601;48.718;8.992;2022-12-20T03:35:40;3.90;99.90
16970;DHT22;8601;48.718;8.992;2022-12-20T03:38:07;4.00;99.90
16970;DHT22;8601;48.718;8.992;2022-12-20T03:40:36;4.00;99.90
16970;DHT22;8601;48.718;8.992;2022-12-20T03:43:03;4.00;99.90
16970;DHT22;8601;48.718;8.992;2022-12-20T03:45:30;4.00;99.90
16970;DHT22;8601;48.718;8.992;2022-12-20T03:47:58;4.00;99.90
16970;DHT22;8601;48.718;8.992;2022-12-20T03:50:25;4.00;99.90
16970;DHT22;8601;48.718;8.992;2022-12-20T03:52:52;3.90;99.90
16970;DHT22;8601;48.718;8.992;2022-12-20T03:55:19;3.90;99.90
16970;DHT22;8601;48.718;8.992;2022-12-20T03:57:46;3.90;99.90
16970;DHT22;8601;48.718;8.992;2022-12-20T04:00:14;3.90;99.90
16970;DHT22;8601;48.718;8.992;2022-12-20T04:02:41;3.90;99.90
16970;DHT22;8601;48.718;8.992;2022-12-20T04:05:09;3.90;99.90
16970;DHT22;8601;48.718;8.992;2022-12-20T04:07:37;3.90;99.90
16970;DHT22;8601;48.718;8.992;2022-12-20T04:10:05;4.00;99.90
16970;DHT22;8601;48.718;8.992;2022-12-20T04:12:32;4.10;99.90
16970;DHT22;8601;48.718;8.992;2022-12-20T04:14:59;4.10;99.90
16970;DHT22;8601;48.718;8.992;2022-12-20T04:17:27;4.20;99.90
16970;DHT22;8601;48.718;8.992;2022-12-20T04:19:53;4.20;99.90
16970;DHT22;8601;48.718;8.992;2022-12-20T04:22:22;4.20;99.90
16970;DHT22;8601;48.718;8.992;2022-12-20T04:24:55;4.20;99.90
16970;DHT22;8601;48.718;8.992;2022-12-20T04:27:22;4.20;99.90
16970;DHT22;8601;48.718;8.992;2022-12-20T04:29:49;4.20;99.90
16970;DHT22;8601;48.718;8.992;2022-12-20T04:32:16;4.20;99.90
16970;DHT22;8601;48.718;8.992;2022-12-20T04:34:43;4.20;99.90
16970;DHT22;8601;48.718;8.992;2022-12-20T04:37:10;4.20;99.90
16970;DHT22;8601;48.718;8.992;2022-12-20T04:39:38;4.20;99.90
16970;DHT22;8601;48.718;8.992;2022-12-20T04:42:14;4.20;99.90
16970;DHT22;8601;48.718;8.992;2022-12-20T04:44:41;4.20;99.90
16970;DHT22;8601;48.718;8.992;2022-12-20T04:47:08;4.30;99.90
16970;DHT22;8601;48.718;8.992;2022-12-20T04:49:35;4.20;99.90
16970;DHT22;8601;48.718;8.992;2022-12-20T04:52:02;4.20;99.90
16970;DHT22;8601;48.718;8.992;2022-12-20T04:54:45;4.20;99.90
16970;DHT22;8601;48.718;8.992;2022-12-20T04:57:12;4.30;99.90
16970;DHT22;8601;48.718;8.992;2022-12-20T04:59:39;4.40;99.90
16970;DHT22;8601;48.718;8.992;2022-12-20T05:02:16;4.50;99.90
16970;DHT22;8601;48.718;8.992;2022-12-20T05:04:43;4.50;99.90
16970;DHT22;8601;48.718;8.992;2022-12-20T05:07:09;4.40;99.90
16970;DHT22;8601;48.718;8.992;2022-12-20T05:09:36;4.40;99.90
16970;DHT22;8601;48.718;8.992;2022-12-20T05:12:05;4.40;99.90
16970;DHT22;8601;48.718;8.992;2022-12-20T05:14:35;4.40;99.90
16970;DHT22;8601;48.718;8.992;2022-12-20T05:17:02;4.40;99.90
16970;DHT22;8601;48.718;8.992;2022-12-20T05:19:29;4.40;99.90
16970;DHT22;8601;48.718;8.992;2022-12-20T05:21:59;4.40;99.90
16970;DHT22;8601;48.718;8.992;2022-12-20T05:24:43;4.50;99.90
16970;DHT22;8601;48.718;8.992;2022-12-20T05:27:29;4.40;99.90
16970;DHT22;8601;48.718;8.992;2022-12-20T05:33:02;4.40;99.90
16970;DHT22;8601;48.718;8.992;2022-12-20T05:35:29;4.40;99.90
16970;DHT22;8601;48.718;8.992;2022-12-20T05:37:55;4.40;99.90
16970;DHT22;8601;48.718;8.992;2022-12-20T05:40:33;4.40;99.90
16970;DHT22;8601;48.718;8.992;2022-12-20T05:43:01;4.30;99.90
16970;DHT22;8601;48.718;8.992;2022-12-20T05:45:28;4.40;99.90
16970;DHT22;8601;48.718;8.992;2022-12-20T05:47:55;4.30;99.90
16970;DHT22;8601;48.718;8.992;2022-12-20T05:50:22;4.40;99.90
16970;DHT22;8601;48.718;8.992;2022-12-20T05:52:49;4.40;99.90
16970;DHT22;8601;48.718;8.992;2022-12-20T05:55:16;4.40;99.90
16970;DHT22;8601;48.718;8.992;2022-12-20T05:57:44;4.40;99.90
16970;DHT22;8601;48.718;8.992;2022-12-20T06:00:14;4.40;99.90
16970;DHT22;8601;48.718;8.992;2022-12-20T06:02:42;4.40;99.90
16970;DHT22;8601;48.718;8.992;2022-12-20T06:05:09;4.40;99.90
16970;DHT22;8601;48.718;8.992;2022-12-20T06:07:35;4.40;99.90
16970;DHT22;8601;48.718;8.992;2022-12-20T06:10:03;4.40;99.90
16970;DHT22;8601;48.718;8.992;2022-12-20T06:12:30;4.50;99.90
16970;DHT22;8601;48.718;8.992;2022-12-20T06:17:51;4.80;99.90
16970;DHT22;8601;48.718;8.992;2022-12-20T06:20:18;4.80;99.90
16970;DHT22;8601;48.718;8.992;2022-12-20T06:22:52;4.80;99.90
16970;DHT22;8601;48.718;8.992;2022-12-20T06:25:19;4.80;99.90
16970;DHT22;8601;48.718;8.992;2022-12-20T06:27:46;4.80;99.90
16970;DHT22;8601;48.718;8.992;2022-12-20T06:30:14;4.80;99.90
16970;DHT22;8601;48.718;8.992;2022-12-20T06:32:57;4.90;99.90
16970;DHT22;8601;48.718;8.992;2022-12-20T06:35:24;4.80;99.90
16970;DHT22;8601;48.718;8.992;2022-12-20T06:37:50;4.80;99.90
16970;DHT22;8601;48.718;8.992;2022-12-20T06:40:17;4.90;99.90
16970;DHT22;8601;48.718;8.992;2022-12-20T06:42:58;4.80;99.90
16970;DHT22;8601;48.718;8.992;2022-12-20T06:45:25;4.70;99.90
16970;DHT22;8601;48.718;8.992;2022-12-20T06:47:52;4.80;99.90
16970;DHT22;8601;48.718;8.992;2022-12-20T06:50:20;4.90;99.90
16970;DHT22;8601;48.718;8.992;2022-12-20T06:53:21;5.00;99.90
16970;DHT22;8601;48.718;8.992;2022-12-20T06:55:49;5.10;99.90
16970;DHT22;8601;48.718;8.992;2022-12-20T06:58:16;5.30;99.90
16970;DHT22;8601;48.718;8.992;2022-12-20T07:00:43;5.40;99.90
16970;DHT22;8601;48.718;8.992;2022-12-20T07:03:10;5.30;99.90
16970;DHT22;8601;48.718;8.992;2022-12-20T07:05:39;5.30;99.90
16970;DHT22;8601;48.718;8.992;2022-12-20T07:08:07;5.30;99.90
16970;DHT22;8601;48.718;8.992;2022-12-20T07:10:35;5.30;99.90
16970;DHT22;8601;48.718;8.992;2022-12-20T07:13:02;5.30;99.90
16970;DHT22;8601;48.718;8.992;2022-12-20T07:15:29;5.40;99.90
16970;DHT22;8601;48.718;8.992;2022-12-20T07:17:56;5.40;99.90
16970;DHT22;8601;48.718;8.992;2022-12-20T07:20:23;5.30;99.90
16970;DHT22;8601;48.718;8.992;2022-12-20T07:22:51;5.30;99.90
16970;DHT22;8601;48.718;8.992;2022-12-20T07:25:18;5.30;99.90
16970;DHT22;8601;48.718;8.992;2022-12-20T07:27:46;5.30;99.90
16970;DHT22;8601;48.718;8.992;2022-12-20T07:30:14;5.30;99.90
16970;DHT22;8601;48.718;8.992;2022-12-20T07:32:41;5.30;99.90
16970;DHT22;8601;48.718;8.992;2022-12-20T07:35:08;5.20;99.90
16970;DHT22;8601;48.718;8.992;2022-12-20T07:37:36;5.20;99.90
16970;DHT22;8601;48.718;8.992;2022-12-20T07:40:05;5.20;99.90
16970;DHT22;8601;48.718;8.992;2022-12-20T07:42:32;5.20;99.90
16970;DHT22;8601;48.718;8.992;2022-12-20T07:44:59;5.40;99.90
16970;DHT22;8601;48.718;8.992;2022-12-20T07:47:27;5.50;99.90
16970;DHT22;8601;48.718;8.992;2022-12-20T07:49:54;5.60;99.90
16970;DHT22;8601;48.718;8.992;2022-12-20T07:52:24;5.60;99.90
16970;DHT22;8601;48.718;8.992;2022-12-20T07:54:57;5.70;99.90
16970;DHT22;8601;48.718;8.992;2022-12-20T07:57:30;5.70;99.90
16970;DHT22;8601;48.718;8.992;2022-12-20T07:59:59;5.80;99.90
16970;DHT22;8601;48.718;8.992;2022-12-20T08:02:30;5.70;99.90
16970;DHT22;8601;48.718;8.992;2022-12-20T08:04:58;5.70;99.90
16970;DHT22;8601;48.718;8.992;2022-12-20T08:07:35;5.70;99.90
16970;DHT22;8601;48.718;8.992;2022-12-20T08:10:03;5.70;99.90
16970;DHT22;8601;48.718;8.992;2022-12-20T08:12:32;5.80;99.90
16970;DHT22;8601;48.718;8.992;2022-12-20T08:14:59;5.80;99.90
16970;DHT22;8601;48.718;8.992;2022-12-20T08:17:26;5.80;99.90
16970;DHT22;8601;48.718;8.992;2022-12-20T08:19:53;5.70;99.90
16970;DHT22;8601;48.718;8.992;2022-12-20T08:22:22;6.10;99.90
16970;DHT22;8601;48.718;8.992;2022-12-20T08:24:49;6.70;99.90
16970;DHT22;8601;48.718;8.992;2022-12-20T08:27:16;6.30;99.90
16970;DHT22;8601;48.718;8.992;2022-12-20T08:29:44;6.10;99.90
16970;DHT22;8601;48.718;8.992;2022-12-20T08:32:13;6.00;99.90
16970;DHT22;8601;48.718;8.992;2022-12-20T08:34:40;6.00;99.90
16970;DHT22;8601;48.718;8.992;2022-12-20T08:37:07;6.00;99.90
16970;DHT22;8601;48.718;8.992;2022-12-20T08:39:34;6.00;99.90
16970;DHT22;8601;48.718;8.992;2022-12-20T08:42:09;6.10;99.90
16970;DHT22;8601;48.718;8.992;2022-12-20T08:44:36;6.10;99.90
16970;DHT22;8601;48.718;8.992;2022-12-20T08:47:04;6.00;99.90
16970;DHT22;8601;48.718;8.992;2022-12-20T08:49:31;6.10;99.90
16970;DHT22;8601;48.718;8.992;2022-12-20T08:51:58;6.10;99.90
16970;DHT22;8601;48.718;8.992;2022-12-20T08:54:25;6.00;99.90
16970;DHT22;8601;48.718;8.992;2022-12-20T08:56:52;6.00;99.90
16970;DHT22;8601;48.718;8.992;2022-12-20T08:59:19;5.90;99.90
16970;DHT22;8601;48.718;8.992;2022-12-20T09:01:46;5.90;99.90
16970;DHT22;8601;48.718;8.992;2022-12-20T09:04:14;5.90;99.90
16970;DHT22;8601;48.718;8.992;2022-12-20T09:06:41;7.30;99.90
16970;DHT22;8601;48.718;8.992;2022-12-20T09:09:09;7.00;99.90
16970;DHT22;8601;48.718;8.992;2022-12-20T09:14:55;6.40;99.90
16970;DHT22;8601;48.718;8.992;2022-12-20T09:17:22;6.20;99.90
16970;DHT22;8601;48.718;8.992;2022-12-20T09:19:50;6.20;99.90
16970;DHT22;8601;48.718;8.992;2022-12-20T09:22:17;6.20;99.90
16970;DHT22;8601;48.718;8.992;2022-12-20T09:24:44;6.20;99.90
16970;DHT22;8601;48.718;8.992;2022-12-20T09:27:21;6.20;99.90
16970;DHT22;8601;48.718;8.992;2022-12-20T09:29:48;6.30;99.90
16970;DHT22;8601;48.718;8.992;2022-12-20T09:32:15;6.30;99.90
16970;DHT22;8601;48.718;8.992;2022-12-20T09:34:42;6.30;99.90
16970;DHT22;8601;48.718;8.992;2022-12-20T09:37:10;6.30;99.90
16970;DHT22;8601;48.718;8.992;2022-12-20T09:39:50;6.30;99.90
16970;DHT22;8601;48.718;8.992;2022-12-20T09:42:19;6.40;99.90
16970;DHT22;8601;48.718;8.992;2022-12-20T09:44:47;6.30;99.90
16970;DHT22;8601;48.718;8.992;2022-12-20T09:47:19;6.40;99.90
16970;DHT22;8601;48.718;8.992;2022-12-20T09:49:52;6.40;99.90
16970;DHT22;8601;48.718;8.992;2022-12-20T09:52:44;6.50;99.90
16970;DHT22;8601;48.718;8.992;2022-12-20T09:55:20;6.50;99.90
16970;DHT22;8601;48.718;8.992;2022-12-20T09:58:01;6.50;99.90
16970;DHT22;8601;48.718;8.992;2022-12-20T10:00:34;6.50;99.90
16970;DHT22;8601;48.718;8.992;2022-12-20T10:03:09;6.50;99.90
16970;DHT22;8601;48.718;8.992;2022-12-20T10:05:45;6.50;99.90
16970;DHT22;8601;48.718;8.992;2022-12-20T10:08:26;6.50;99.90
16970;DHT22;8601;48.718;8.992;2022-12-20T10:10:58;6.40;99.90
16970;DHT22;8601;48.718;8.992;2022-12-20T10:13:40;6.40;99.90
16970;DHT22;8601;48.718;8.992;2022-12-20T10:16:31;6.50;99.90
16970;DHT22;8601;48.718;8.992;2022-12-20T10:19:17;6.60;99.90
16970;DHT22;8601;48.718;8.992;2022-12-20T10:21:51;6.60;99.90
16970;DHT22;8601;48.718;8.992;2022-12-20T10:24:25;6.60;99.90
16970;DHT22;8601;48.718;8.992;2022-12-20T10:26:55;6.60;99.90
16970;DHT22;8601;48.718;8.992;2022-12-20T10:29:24;6.50;99.90
16970;DHT22;8601;48.718;8.992;2022-12-20T10:31:56;6.60;99.90
16970;DHT22;8601;48.718;8.992;2022-12-20T10:34:24;7.70;99.90
16970;DHT22;8601;48.718;8.992;2022-12-20T10:37:10;7.50;99.90
16970;DHT22;8601;48.718;8.992;2022-12-20T10:39:41;7.40;99.90
16970;DHT22;8601;48.718;8.992;2022-12-20T10:42:24;7.30;99.90
16970;DHT22;8601;48.718;8.992;2022-12-20T10:44:52;7.20;99.90
16970;DHT22;8601;48.718;8.992;2022-12-20T10:47:32;7.10;99.90
16970;DHT22;8601;48.718;8.992;2022-12-20T10:50:09;7.20;99.90
16970;DHT22;8601;48.718;8.992;2022-12-20T10:52:39;7.10;99.90
16970;DHT22;8601;48.718;8.992;2022-12-20T10:55:35;7.10;99.90
16970;DHT22;8601;48.718;8.992;2022-12-20T10:58:04;7.00;99.90
16970;DHT22;8601;48.718;8.992;2022-12-20T11:00:32;7.00;99.90
16970;DHT22;8601;48.718;8.992;2022-12-20T11:03:06;7.10;99.90
16970;DHT22;8601;48.718;8.992;2022-12-20T11:05:35;7.10;99.90
16970;DHT22;8601;48.718;8.992;2022-12-20T11:08:11;7.00;99.90
16970;DHT22;8601;48.718;8.992;2022-12-20T11:10:41;7.00;99.90
16970;DHT22;8601;48.718;8.992;2022-12-20T11:13:19;7.00;99.90
16970;DHT22;8601;48.718;8.992;2022-12-20T11:15:47;7.10;99.90
16970;DHT22;8601;48.718;8.992;2022-12-20T11:18:21;7.00;99.90
16970;DHT22;8601;48.718;8.992;2022-12-20T11:20:53;7.10;99.90
16970;DHT22;8601;48.718;8.992;2022-12-20T11:23:28;7.10;99.90
16970;DHT22;8601;48.718;8.992;2022-12-20T11:26:12;7.20;99.90
16970;DHT22;8601;48.718;8.992;2022-12-20T11:28:51;7.20;99.90
16970;DHT22;8601;48.718;8.992;2022-12-20T11:31:27;7.20;99.90
16970;DHT22;8601;48.718;8.992;2022-12-20T11:34:07;7.20;99.90
16970;DHT22;8601;48.718;8.992;2022-12-20T11:39:38;7.30;99.90
16970;DHT22;8601;48.718;8.992;2022-12-20T11:42:20;7.30;99.90
16970;DHT22;8601;48.718;8.992;2022-12-20T11:44:55;7.20;99.90
16970;DHT22;8601;48.718;8.992;2022-12-20T11:47:46;7.30;99.90
16970;DHT22;8601;48.718;8.992;2022-12-20T11:50:34;7.30;99.90
16970;DHT22;8601;48.718;8.992;2022-12-20T11:53:07;7.30;99.90
16970;DHT22;8601;48.718;8.992;2022-12-20T11:55:40;7.20;99.90
16970;DHT22;8601;48.718;8.992;2022-12-20T11:58:16;7.30;99.90
16970;DHT22;8601;48.718;8.992;2022-12-20T12:00:49;7.30;99.90
16970;DHT22;8601;48.718;8.992;2022-12-20T12:03:23;7.30;99.90
16970;DHT22;8601;48.718;8.992;2022-12-20T12:05:53;7.40;99.90
16970;DHT22;8601;48.718;8.992;2022-12-20T12:08:24;7.50;99.90
16970;DHT22;8601;48.718;8.992;2022-12-20T12:10:58;7.50;99.90
16970;DHT22;8601;48.718;8.992;2022-12-20T12:13:29;7.60;99.90
16970;DHT22;8601;48.718;8.992;2022-12-20T12:16:02;7.60;99.90
16970;DHT22;8601;48.718;8.992;2022-12-20T12:18:34;7.60;99.90
16970;DHT22;8601;48.718;8.992;2022-12-20T12:21:07;7.60;99.90
16970;DHT22;8601;48.718;8.992;2022-12-20T12:23:44;7.60;99.90
16970;DHT22;8601;48.718;8.992;2022-12-20T12:26:19;7.60;99.90
16970;DHT22;8601;48.718;8.992;2022-12-20T12:28:52;7.60;99.90
16970;DHT22;8601;48.718;8.992;2022-12-20T12:31:25;7.60;99.90
16970;DHT22;8601;48.718;8.992;2022-12-20T12:34:03;7.60;99.90
16970;DHT22;8601;48.718;8.992;2022-12-20T12:36:44;7.60;99.90
16970;DHT22;8601;48.718;8.992;2022-12-20T12:42:31;7.50;99.90
16970;DHT22;8601;48.718;8.992;2022-12-20T12:45:08;7.50;99.90
16970;DHT22;8601;48.718;8.992;2022-12-20T12:47:44;7.40;99.90
16970;DHT22;8601;48.718;8.992;2022-12-20T12:50:24;7.40;99.90
16970;DHT22;8601;48.718;8.992;2022-12-20T12:52:55;7.40;99.90
16970;DHT22;8601;48.718;8.992;2022-12-20T12:55:41;7.40;99.90
16970;DHT22;8601;48.718;8.992;2022-12-20T12:58:31;7.40;99.90
16970;DHT22;8601;48.718;8.992;2022-12-20T13:01:01;7.50;99.90
16970;DHT22;8601;48.718;8.992;2022-12-20T13:04:09;7.50;99.90
16970;DHT22;8601;48.718;8.992;2022-12-20T13:06:56;7.50;99.90
16970;DHT22;8601;48.718;8.992;2022-12-20T13:09:40;7.50;99.90
16970;DHT22;8601;48.718;8.992;2022-12-20T13:15:48;8.50;99.90
16970;DHT22;8601;48.718;8.992;2022-12-20T13:18:27;8.20;99.90
16970;DHT22;8601;48.718;8.992;2022-12-20T13:24:39;7.80;99.90
16970;DHT22;8601;48.718;8.992;2022-12-20T13:27:23;7.70;99.90
16970;DHT22;8601;48.718;8.992;2022-12-20T13:29:55;7.60;99.90
16970;DHT22;8601;48.718;8.992;2022-12-20T13:35:31;7.60;99.90
16970;DHT22;8601;48.718;8.992;2022-12-20T13:38:37;7.60;99.90
16970;DHT22;8601;48.718;8.992;2022-12-20T13:41:11;7.60;99.90
16970;DHT22;8601;48.718;8.992;2022-12-20T13:43:45;7.50;99.90
16970;DHT22;8601;48.718;8.992;2022-12-20T13:46:17;7.50;99.90
16970;DHT22;8601;48.718;8.992;2022-12-20T13:48:50;7.50;99.90
16970;DHT22;8601;48.718;8.992;2022-12-20T13:51:20;7.50;99.90
16970;DHT22;8601;48.718;8.992;2022-12-20T13:53:51;7.40;99.90
16970;DHT22;8601;48.718;8.992;2022-12-20T13:56:32;7.40;99.90
16970;DHT22;8601;48.718;8.992;2022-12-20T13:59:04;7.40;99.90
16970;DHT22;8601;48.718;8.992;2022-12-20T14:01:31;7.40;99.90
16970;DHT22;8601;48.718;8.992;2022-12-20T14:04:03;7.40;99.90
16970;DHT22;8601;48.718;8.992;2022-12-20T14:06:33;7.30;99.90
16970;DHT22;8601;48.718;8.992;2022-12-20T14:09:00;7.40;99.90
16970;DHT22;8601;48.718;8.992;2022-12-20T14:11:31;7.30;99.90
16970;DHT22;8601;48.718;8.992;2022-12-20T14:14:00;8.90;99.90
16970;DHT22;8601;48.718;8.992;2022-12-20T14:16:28;9.50;99.90
16970;DHT22;8601;48.718;8.992;2022-12-20T14:19:03;8.90;99.90
16970;DHT22;8601;48.718;8.992;2022-12-20T14:21:34;8.50;99.90
16970;DHT22;8601;48.718;8.992;2022-12-20T14:24:03;8.10;99.90
16970;DHT22;8601;48.718;8.992;2022-12-20T14:26:37;7.90;99.90
16970;DHT22;8601;48.718;8.992;2022-12-20T14:29:10;7.70;99.90
16970;DHT22;8601;48.718;8.992;2022-12-20T14:31:40;7.60;99.90
16970;DHT22;8601;48.718;8.992;2022-12-20T14:34:13;7.50;99.90
16970;DHT22;8601;48.718;8.992;2022-12-20T14:36:44;7.50;99.90
16970;DHT22;8601;48.718;8.992;2022-12-20T14:39:25;7.40;99.90
16970;DHT22;8601;48.718;8.992;2022-12-20T14:41:57;7.40;99.90
16970;DHT22;8601;48.718;8.992;2022-12-20T14:44:26;7.40;99.90
16970;DHT22;8601;48.718;8.992;2022-12-20T14:46:55;7.30;99.90
16970;DHT22;8601;48.718;8.992;2022-12-20T14:49:25;7.40;99.90
16970;DHT22;8601;48.718;8.992;2022-12-20T14:52:13;7.40;99.90
16970;DHT22;8601;48.718;8.992;2022-12-20T14:54:45;7.40;99.90
16970;DHT22;8601;48.718;8.992;2022-12-20T14:57:21;7.40;99.90
16970;DHT22;8601;48.718;8.992;2022-12-20T14:59:59;7.40;99.90
16970;DHT22;8601;48.718;8.992;2022-12-20T15:02:34;7.30;99.90
16970;DHT22;8601;48.718;8.992;2022-12-20T15:05:07;7.30;99.90
16970;DHT22;8601;48.718;8.992;2022-12-20T15:07:39;7.30;99.90
16970;DHT22;8601;48.718;8.992;2022-12-20T15:10:07;7.20;99.90
16970;DHT22;8601;48.718;8.992;2022-12-20T15:12:35;7.10;99.90
16970;DHT22;8601;48.718;8.992;2022-12-20T15:15:05;7.10;99.90
16970;DHT22;8601;48.718;8.992;2022-12-20T15:17:34;7.10;99.90
16970;DHT22;8601;48.718;8.992;2022-12-20T15:20:03;7.10;99.90
16970;DHT22;8601;48.718;8.992;2022-12-20T15:22:32;7.10;99.90
16970;DHT22;8601;48.718;8.992;2022-12-20T15:25:07;7.20;99.90
16970;DHT22;8601;48.718;8.992;2022-12-20T15:27:38;7.20;99.90
16970;DHT22;8601;48.718;8.992;2022-12-20T15:30:09;7.20;99.90
16970;DHT22;8601;48.718;8.992;2022-12-20T15:32:37;7.30;99.90
16970;DHT22;8601;48.718;8.992;2022-12-20T15:35:11;7.40;99.90
16970;DHT22;8601;48.718;8.992;2022-12-20T15:37:39;7.40;99.90
16970;DHT22;8601;48.718;8.992;2022-12-20T15:40:12;7.40;99.90
16970;DHT22;8601;48.718;8.992;2022-12-20T15:42:40;7.40;99.90
16970;DHT22;8601;48.718;8.992;2022-12-20T15:45:12;7.40;99.90
16970;DHT22;8601;48.718;8.992;2022-12-20T15:47:39;7.40;99.90
16970;DHT22;8601;48.718;8.992;2022-12-20T15:50:08;7.30;99.90
16970;DHT22;8601;48.718;8.992;2022-12-20T15:52:35;7.20;99.90
16970;DHT22;8601;48.718;8.992;2022-12-20T15:55:02;7.20;99.90
16970;DHT22;8601;48.718;8.992;2022-12-20T15:57:31;7.20;99.90
16970;DHT22;8601;48.718;8.992;2022-12-20T15:59:59;7.30;99.90
16970;DHT22;8601;48.718;8.992;2022-12-20T16:02:27;7.30;99.90
16970;DHT22;8601;48.718;8.992;2022-12-20T16:04:54;7.30;99.90
16970;DHT22;8601;48.718;8.992;2022-12-20T16:07:22;7.40;99.90
16970;DHT22;8601;48.718;8.992;2022-12-20T16:09:49;7.40;99.90
16970;DHT22;8601;48.718;8.992;2022-12-20T16:12:19;7.50;99.90
16970;DHT22;8601;48.718;8.992;2022-12-20T16:14:49;7.60;99.90
16970;DHT22;8601;48.718;8.992;2022-12-20T16:17:17;7.50;99.90
16970;DHT22;8601;48.718;8.992;2022-12-20T16:19:45;7.50;99.90
16970;DHT22;8601;48.718;8.992;2022-12-20T16:22:14;7.60;99.90
16970;DHT22;8601;48.718;8.992;2022-12-20T16:24:42;7.70;99.90
16970;DHT22;8601;48.718;8.992;2022-12-20T16:27:09;7.70;99.90
16970;DHT22;8601;48.718;8.992;2022-12-20T16:29:37;7.70;99.90
16970;DHT22;8601;48.718;8.992;2022-12-20T16:32:11;7.80;99.90
16970;DHT22;8601;48.718;8.992;2022-12-20T16:34:38;7.80;99.90
16970;DHT22;8601;48.718;8.992;2022-12-20T16:37:06;7.80;99.90
16970;DHT22;8601;48.718;8.992;2022-12-20T16:39:33;7.90;99.90
16970;DHT22;8601;48.718;8.992;2022-12-20T16:42:02;8.00;99.90
16970;DHT22;8601;48.718;8.992;2022-12-20T16:44:30;8.10;99.90
16970;DHT22;8601;48.718;8.992;2022-12-20T16:46:58;8.20;99.90
16970;DHT22;8601;48.718;8.992;2022-12-20T16:49:26;8.20;99.90
16970;DHT22;8601;48.718;8.992;2022-12-20T16:51:53;8.30;99.90
16970;DHT22;8601;48.718;8.992;2022-12-20T16:54:21;8.30;99.90
16970;DHT22;8601;48.718;8.992;2022-12-20T16:56:49;8.30;99.90
16970;DHT22;8601;48.718;8.992;2022-12-20T16:59:25;8.30;99.90